createdAt,value
2022-11-27T00:00:08.864Z,101675.26
2022-11-27T00:03:07.201Z,101670.55
2022-11-27T00:05:40.973Z,101669.67
2022-11-27T00:08:14.528Z,101668.33
2022-11-27T00:10:48.279Z,101674.55
2022-11-27T00:13:21.675Z,101670.29
2022-11-27T00:15:58.551Z,101673.69
2022-11-27T00:18:32.572Z,101672.75
2022-11-27T00:21:09.038Z,101672.52
2022-11-27T00:23:42.834Z,101671.11
2022-11-27T00:26:16.494Z,101670.36
2022-11-27T00:28:50.465Z,101668.66
2022-11-27T00:31:28.826Z,101673.46
2022-11-27T00:34:04.938Z,101669.98
2022-11-27T00:36:39.794Z,101669.52
2022-11-27T00:39:15.674Z,101674.73
2022-11-27T00:41:49.144Z,101674.23
2022-11-27T00:44:22.712Z,101672.73
2022-11-27T00:46:56.841Z,101671.31
2022-11-27T00:49:30.836Z,101667.95
2022-11-27T00:52:04.296Z,101667.35
2022-11-27T00:54:38.178Z,101660.81
2022-11-27T00:57:12.341Z,101660.75
2022-11-27T00:59:45.974Z,101658.41
2022-11-27T01:02:20.308Z,101659.91
2022-11-27T01:04:54.207Z,101661.27
2022-11-27T01:07:27.849Z,101661.03
2022-11-27T01:10:01.520Z,101665.66
2022-11-27T01:12:35.339Z,101668.77
2022-11-27T01:15:10.606Z,101666.84
2022-11-27T01:17:44.117Z,101666.05
2022-11-27T01:20:17.869Z,101666.14
2022-11-27T01:22:51.444Z,101669.13
2022-11-27T01:25:27.100Z,101671.23
2022-11-27T01:28:01.361Z,101674.71
2022-11-27T01:30:34.605Z,101674.01
2022-11-27T01:33:08.182Z,101673.64
2022-11-27T01:35:41.719Z,101672.52
2022-11-27T01:38:15.354Z,101672.44
2022-11-27T01:40:48.684Z,101671.96
2022-11-27T01:43:42.274Z,101672.44
2022-11-27T01:46:36.481Z,101675.33
2022-11-27T01:49:27.376Z,101678.32
2022-11-27T01:52:04.276Z,101673.94
2022-11-27T01:54:44.044Z,101673.13
2022-11-27T01:57:20.804Z,101668.70
2022-11-27T01:59:56.482Z,101672.66
2022-11-27T02:02:30.253Z,101674.77
2022-11-27T02:05:05.298Z,101672.73
2022-11-27T02:07:38.865Z,101673.97
2022-11-27T02:10:14.223Z,101678.95
2022-11-27T02:12:56.027Z,101678.70
2022-11-27T02:15:39.492Z,101678.46
2022-11-27T02:18:20.794Z,101687.35
2022-11-27T02:21:02.187Z,101689.34
2022-11-27T02:24:00.476Z,101688.08
2022-11-27T02:27:05.578Z,101690.67
2022-11-27T02:29:41.493Z,101697.95
2022-11-27T02:32:20.823Z,101697.70
2022-11-27T02:34:58.068Z,101697.45
2022-11-27T02:37:41.918Z,101700.46
2022-11-27T02:40:21.679Z,101694.45
2022-11-27T02:42:59.867Z,101699.63
2022-11-27T02:45:37.938Z,101701.28
2022-11-27T02:48:14.557Z,101702.66
2022-11-27T02:50:50.744Z,101704.89
2022-11-27T02:53:28.422Z,101703.88
2022-11-27T02:56:04.226Z,101702.90
2022-11-27T02:58:39.725Z,101704.52
2022-11-27T03:01:14.006Z,101703.02
2022-11-27T03:03:53.908Z,101701.76
2022-11-27T03:06:35.578Z,101700.18
2022-11-27T03:09:12.594Z,101696.39
2022-11-27T03:11:47.123Z,101700.27
2022-11-27T03:14:25.254Z,101696.65
2022-11-27T03:17:07.698Z,101695.21
2022-11-27T03:19:47.951Z,101698.55
2022-11-27T03:22:21.390Z,101699.64
2022-11-27T03:24:55.527Z,101696.74
2022-11-27T03:27:33.671Z,101697.95
2022-11-27T03:30:11.144Z,101698.73
2022-11-27T03:32:44.733Z,101694.84
2022-11-27T03:35:21.734Z,101700.08
2022-11-27T03:37:56.332Z,101695.98
2022-11-27T03:40:37.899Z,101698.60
2022-11-27T03:43:16.111Z,101697.90
2022-11-27T03:45:59.962Z,101694.60
2022-11-27T03:48:38.845Z,101694.48
2022-11-27T03:51:19.569Z,101698.65
2022-11-27T03:54:02.403Z,101694.48
2022-11-27T03:56:40.010Z,101696.17
2022-11-27T03:59:18.566Z,101699.61
2022-11-27T04:01:50.480Z,101697.95
2022-11-27T04:04:24.098Z,101699.12
2022-11-27T04:06:58.021Z,101699.17
2022-11-27T04:09:31.637Z,101699.87
2022-11-27T04:12:05.170Z,101695.48
2022-11-27T04:14:39.068Z,101696.16
2022-11-27T04:17:13.166Z,101696.10
2022-11-27T04:19:47.147Z,101694.48
2022-11-27T04:22:20.767Z,101696.10
2022-11-27T04:24:54.858Z,101696.77
2022-11-27T04:27:28.353Z,101699.09
2022-11-27T04:30:01.680Z,101699.26
2022-11-27T04:32:35.412Z,101698.44
2022-11-27T04:35:10.613Z,101695.75
2022-11-27T04:37:44.072Z,101695.16
2022-11-27T04:40:18.220Z,101695.45
2022-11-27T04:42:52.142Z,101699.02
2022-11-27T04:45:25.629Z,101699.77
2022-11-27T04:47:59.578Z,101696.84
2022-11-27T04:50:33.221Z,101695.31
2022-11-27T04:53:07.103Z,101696.74
2022-11-27T04:55:40.624Z,101697.59
2022-11-27T04:58:14.245Z,101696.11
2022-11-27T05:00:47.988Z,101691.64
2022-11-27T05:03:21.541Z,101696.69
2022-11-27T05:06:00.117Z,101697.69
2022-11-27T05:08:34.858Z,101696.70
2022-11-27T05:11:10.345Z,101698.90
2022-11-27T05:13:43.939Z,101697.20
2022-11-27T05:16:17.917Z,101694.10
2022-11-27T05:18:51.492Z,101694.50
2022-11-27T05:21:24.953Z,101690.20
2022-11-27T05:23:58.740Z,101692.23
2022-11-27T05:26:32.427Z,101689.41
2022-11-27T05:29:06.363Z,101687.91
2022-11-27T05:31:45.267Z,101689.39
2022-11-27T05:34:23.122Z,101683.48
2022-11-27T05:36:56.575Z,101688.75
2022-11-27T05:40:02.394Z,101685.31
2022-11-27T05:42:37.693Z,101685.69
2022-11-27T05:45:12.798Z,101686.55
2022-11-27T05:47:46.800Z,101686.09
2022-11-27T05:50:20.563Z,101685.66
2022-11-27T05:52:53.837Z,101686.12
2022-11-27T05:55:27.478Z,101685.08
2022-11-27T05:58:00.839Z,101686.83
2022-11-27T06:00:34.571Z,101683.47
2022-11-27T06:03:08.016Z,101676.10
2022-11-27T06:05:43.919Z,101676.55
2022-11-27T06:08:17.588Z,101677.55
2022-11-27T06:10:52.104Z,101679.20
2022-11-27T06:13:25.850Z,101677.13
2022-11-27T06:15:59.221Z,101671.84
2022-11-27T06:18:32.887Z,101671.73
2022-11-27T06:21:10.052Z,101669.60
2022-11-27T06:23:44.618Z,101665.70
2022-11-27T06:26:21.044Z,101669.04
2022-11-27T06:28:55.161Z,101673.65
2022-11-27T06:31:31.733Z,101677.80
2022-11-27T06:34:06.152Z,101680.61
2022-11-27T06:36:41.682Z,101683.73
2022-11-27T06:39:15.044Z,101683.77
2022-11-27T06:41:48.381Z,101686.80
2022-11-27T06:44:22.426Z,101689.89
2022-11-27T06:46:56.657Z,101691.85
2022-11-27T06:49:30.297Z,101691.79
2022-11-27T06:52:03.806Z,101693.05
2022-11-27T06:54:37.044Z,101693.73
2022-11-27T06:57:11.641Z,101688.83
2022-11-27T06:59:45.600Z,101685.50
2022-11-27T07:02:19.412Z,101686.78
2022-11-27T07:04:53.364Z,101689.02
2022-11-27T07:07:27.261Z,101691.39
2022-11-27T07:10:01.299Z,101687.02
2022-11-27T07:12:35.201Z,101685.61
2022-11-27T07:15:10.413Z,101679.42
2022-11-27T07:17:43.700Z,101676.77
2022-11-27T07:20:17.904Z,101674.76
2022-11-27T07:22:51.656Z,101673.26
2022-11-27T07:25:25.357Z,101670.77
2022-11-27T07:27:59.373Z,101671.67
2022-11-27T07:30:33.136Z,101669.92
2022-11-27T07:33:06.904Z,101671.20
2022-11-27T07:35:40.558Z,101674.30
2022-11-27T07:38:14.330Z,101676.32
2022-11-27T07:40:47.922Z,101673.90
2022-11-27T07:43:21.243Z,101672.14
2022-11-27T07:45:55.430Z,101673.66
2022-11-27T07:48:29.296Z,101680.11
2022-11-27T07:51:02.746Z,101670.53
2022-11-27T07:53:39.399Z,101671.98
2022-11-27T07:56:15.578Z,101673.25
2022-11-27T07:58:49.051Z,101678.34
2022-11-27T08:01:22.945Z,101680.42
2022-11-27T08:03:57.423Z,101682.77
2022-11-27T08:06:31.049Z,101682.44
2022-11-27T08:09:05.348Z,101681.17
2022-11-27T08:11:39.139Z,101679.95
2022-11-27T08:14:14.448Z,101681.35
2022-11-27T08:16:48.244Z,101681.05
2022-11-27T08:19:21.656Z,101679.46
2022-11-27T08:21:56.574Z,101680.05
2022-11-27T08:24:30.097Z,101677.52
2022-11-27T08:27:03.844Z,101673.60
2022-11-27T08:29:37.449Z,101671.86
2022-11-27T08:32:11.539Z,101668.59
2022-11-27T08:34:45.262Z,101664.60
2022-11-27T08:37:19.202Z,101668.66
2022-11-27T08:39:52.362Z,101672.07
2022-11-27T08:42:26.984Z,101678.83
2022-11-27T08:45:00.582Z,101682.50
2022-11-27T08:47:34.158Z,101684.83
2022-11-27T08:50:09.335Z,101689.10
2022-11-27T08:52:43.441Z,101690.13
2022-11-27T08:55:17.283Z,101687.61
2022-11-27T08:57:50.998Z,101688.46
2022-11-27T09:00:28.144Z,101684.09
2022-11-27T09:03:02.574Z,101686.66
2022-11-27T09:05:36.808Z,101684.55
2022-11-27T09:08:10.250Z,101681.99
2022-11-27T09:10:43.656Z,101682.88
2022-11-27T09:13:17.415Z,101689.39
2022-11-27T09:15:51.341Z,101694.09
2022-11-27T09:18:25.366Z,101688.33
2022-11-27T09:21:03.404Z,101687.59
2022-11-27T09:23:37.833Z,101688.38
2022-11-27T09:26:13.433Z,101691.20
2022-11-27T09:28:47.555Z,101694.42
2022-11-27T09:31:21.470Z,101691.75
2022-11-27T09:33:55.246Z,101692.98
2022-11-27T09:36:29.046Z,101694.49
2022-11-27T09:39:03.932Z,101690.70
2022-11-27T09:41:48.052Z,101690.67
2022-11-27T09:44:32.714Z,101690.24
2022-11-27T09:47:16.019Z,101685.33
2022-11-27T09:49:53.554Z,101679.63
2022-11-27T09:52:33.625Z,101680.39
2022-11-27T09:55:13.298Z,101679.97
2022-11-27T09:57:55.562Z,101684.47
2022-11-27T10:00:30.065Z,101686.63
2022-11-27T10:03:03.898Z,101682.50
2022-11-27T10:05:47.414Z,101675.29
2022-11-27T10:08:34.754Z,101669.76
2022-11-27T10:11:23.411Z,101665.92
2022-11-27T10:14:02.998Z,101660.43
2022-11-27T10:16:44.709Z,101663.02
2022-11-27T10:19:28.959Z,101654.33
2022-11-27T10:22:13.386Z,101649.73
2022-11-27T10:24:54.533Z,101649.93
2022-11-27T10:27:34.917Z,101647.33
2022-11-27T10:30:18.752Z,101647.16
2022-11-27T10:32:57.697Z,101642.61
2022-11-27T10:35:33.864Z,101640.80
2022-11-27T10:38:14.517Z,101643.83
2022-11-27T10:40:55.474Z,101643.77
2022-11-27T10:43:29.562Z,101642.73
2022-11-27T10:46:11.230Z,101643.98
2022-11-27T10:48:45.027Z,101639.55
2022-11-27T10:51:22.585Z,101637.02
2022-11-27T10:53:57.522Z,101630.15
2022-11-27T10:56:54.774Z,101624.95
2022-11-27T10:59:34.850Z,101632.91
2022-11-27T11:02:26.364Z,101632.81
2022-11-27T11:05:30.030Z,101633.72
2022-11-27T11:08:06.264Z,101631.11
2022-11-27T11:10:45.872Z,101630.73
2022-11-27T11:13:27.963Z,101627.14
2022-11-27T11:16:06.981Z,101624.34
2022-11-27T11:18:49.480Z,101621.17
2022-11-27T11:21:28.754Z,101621.48
2022-11-27T11:24:05.701Z,101618.13
2022-11-27T11:26:45.702Z,101617.05
2022-11-27T11:29:32.518Z,101618.71
2022-11-27T11:32:11.817Z,101618.26
2022-11-27T11:34:57.681Z,101614.52
2022-11-27T11:37:36.351Z,101615.16
2022-11-27T11:40:23.719Z,101614.67
2022-11-27T11:42:59.354Z,101612.90
2022-11-27T11:45:35.266Z,101615.02
2022-11-27T11:48:25.103Z,101617.36
2022-11-27T11:51:03.410Z,101616.50
2022-11-27T11:53:39.656Z,101615.91
2022-11-27T11:56:33.804Z,101614.11
2022-11-27T11:59:16.510Z,101612.02
2022-11-27T12:02:11.600Z,101610.84
2022-11-27T12:05:03.947Z,101612.38
2022-11-27T12:07:55.984Z,101617.01
2022-11-27T12:10:35.301Z,101613.58
2022-11-27T12:13:22.579Z,101609.05
2022-11-27T12:16:01.861Z,101603.75
2022-11-27T12:18:47.318Z,101601.64
2022-11-27T12:21:30.353Z,101597.99
2022-11-27T12:24:19.657Z,101595.45
2022-11-27T12:27:07.688Z,101595.86
2022-11-27T12:30:10.789Z,101596.02
2022-11-27T12:33:01.157Z,101598.50
2022-11-27T12:35:43.771Z,101595.52
2022-11-27T12:38:43.782Z,101596.02
2022-11-27T12:41:47.470Z,101598.74
2022-11-27T12:44:30.238Z,101595.67
2022-11-27T12:47:08.894Z,101592.50
2022-11-27T12:49:43.919Z,101592.88
2022-11-27T12:52:22.173Z,101587.96
2022-11-27T12:55:04.125Z,101587.45
2022-11-27T12:57:46.593Z,101586.45
2022-11-27T13:00:25.193Z,101588.28
2022-11-27T13:03:08.260Z,101585.17
2022-11-27T13:05:48.049Z,101581.89
2022-11-27T13:08:28.467Z,101583.67
2022-11-27T13:11:06.846Z,101579.77
2022-11-27T13:13:45.328Z,101580.64
2022-11-27T13:16:23.960Z,101576.04
2022-11-27T13:18:58.624Z,101575.92
2022-11-27T13:21:35.693Z,101575.69
2022-11-27T13:24:13.875Z,101570.92
2022-11-27T13:26:54.566Z,101573.08
2022-11-27T13:29:33.932Z,101571.96
2022-11-27T13:32:09.555Z,101572.73
2022-11-27T13:34:49.627Z,101571.17
2022-11-27T13:37:36.407Z,101569.88
2022-11-27T13:40:23.625Z,101575.91
2022-11-27T13:43:02.866Z,101582.40
2022-11-27T13:45:38.614Z,101586.48
2022-11-27T13:48:31.702Z,101587.81
2022-11-27T13:51:07.612Z,101583.78
2022-11-27T13:53:43.187Z,101587.91
2022-11-27T13:56:16.975Z,101589.13
2022-11-27T13:58:50.648Z,101586.91
2022-11-27T14:01:26.478Z,101586.04
2022-11-27T14:04:10.996Z,101579.86
2022-11-27T14:06:53.991Z,101578.06
2022-11-27T14:09:40.235Z,101568.96
2022-11-27T14:12:26.074Z,101565.48
2022-11-27T14:15:10.744Z,101565.19
2022-11-27T14:17:47.545Z,101565.30
2022-11-27T14:20:30.649Z,101565.44
2022-11-27T14:23:12.433Z,101564.34
2022-11-27T14:25:50.625Z,101566.48
2022-11-27T14:28:26.786Z,101563.27
2022-11-27T14:31:03.478Z,101565.30
2022-11-27T14:34:13.388Z,101567.21
2022-11-27T14:36:41.511Z,101563.10
2022-11-27T14:39:27.628Z,101561.64
2022-11-27T14:42:03.778Z,101562.19
2022-11-27T14:44:38.149Z,101564.71
2022-11-27T14:47:25.029Z,101563.52
2022-11-27T14:50:01.505Z,101562.96
2022-11-27T14:52:35.388Z,101561.31
2022-11-27T14:55:16.691Z,101558.81
2022-11-27T14:57:52.165Z,101558.60
2022-11-27T15:00:29.429Z,101557.78
2022-11-27T15:03:12.812Z,101560.02
2022-11-27T15:05:56.933Z,101557.88
2022-11-27T15:08:33.560Z,101555.36
2022-11-27T15:11:08.227Z,101549.94
2022-11-27T15:13:42.359Z,101547.83
2022-11-27T15:16:22.127Z,101551.19
2022-11-27T15:18:59.560Z,101549.95
2022-11-27T15:21:36.427Z,101547.31
2022-11-27T15:24:33.629Z,101550.45
2022-11-27T15:27:23.079Z,101548.00
2022-11-27T15:30:15.482Z,101549.33
2022-11-27T15:32:53.161Z,101552.05
2022-11-27T15:35:32.813Z,101552.02
2022-11-27T15:38:15.979Z,101550.06
2022-11-27T15:41:02.137Z,101548.63
2022-11-27T15:43:35.535Z,101547.52
2022-11-27T15:46:13.311Z,101554.62
2022-11-27T15:48:47.143Z,101553.13
2022-11-27T15:51:22.538Z,101552.98
2022-11-27T15:53:56.237Z,101554.37
2022-11-27T15:56:30.958Z,101555.20
2022-11-27T15:59:04.707Z,101554.09
2022-11-27T16:01:39.086Z,101554.33
2022-11-27T16:04:13.146Z,101547.13
2022-11-27T16:06:47.794Z,101545.46
2022-11-27T16:09:21.638Z,101546.70
2022-11-27T16:11:55.241Z,101547.17
2022-11-27T16:14:28.543Z,101545.80
2022-11-27T16:17:02.881Z,101542.53
2022-11-27T16:19:37.099Z,101538.91
2022-11-27T16:22:11.948Z,101533.67
2022-11-27T16:24:47.790Z,101542.92
2022-11-27T16:27:22.509Z,101537.63
2022-11-27T16:29:57.813Z,101533.99
2022-11-27T16:32:31.646Z,101534.98
2022-11-27T16:35:11.475Z,101533.42
2022-11-27T16:37:48.105Z,101533.47
2022-11-27T16:40:22.190Z,101532.11
2022-11-27T16:42:56.814Z,101532.27
2022-11-27T16:45:34.895Z,101523.43
2022-11-27T16:48:09.948Z,101522.44
2022-11-27T16:50:44.856Z,101527.12
2022-11-27T16:53:19.235Z,101525.94
2022-11-27T16:55:54.105Z,101525.87
2022-11-27T16:58:34.937Z,101527.30
2022-11-27T17:01:11.161Z,101528.09
2022-11-27T17:03:47.370Z,101529.25
2022-11-27T17:06:24.503Z,101528.20
2022-11-27T17:09:00.268Z,101522.12
2022-11-27T17:11:36.236Z,101520.89
2022-11-27T17:14:11.850Z,101516.12
2022-11-27T17:16:46.200Z,101517.09
2022-11-27T17:19:25.050Z,101516.10
2022-11-27T17:21:59.466Z,101515.90
2022-11-27T17:24:36.575Z,101516.77
2022-11-27T17:27:13.314Z,101510.71
2022-11-27T17:29:49.106Z,101509.63
2022-11-27T17:32:25.877Z,101510.58
2022-11-27T17:35:02.038Z,101508.89
2022-11-27T17:37:37.269Z,101504.98
2022-11-27T17:40:14.540Z,101501.08
2022-11-27T17:42:48.852Z,101495.26
2022-11-27T17:45:29.329Z,101494.77
2022-11-27T17:48:03.725Z,101493.16
2022-11-27T17:50:38.352Z,101495.56
2022-11-27T17:53:13.197Z,101497.32
2022-11-27T17:55:47.998Z,101498.16
2022-11-27T17:58:23.696Z,101500.09
2022-11-27T18:00:58.459Z,101500.07
2022-11-27T18:03:40.917Z,101499.02
2022-11-27T18:06:16.386Z,101495.48
2022-11-27T18:08:51.964Z,101495.62
2022-11-27T18:11:29.441Z,101492.02
2022-11-27T18:14:09.113Z,101487.71
2022-11-27T18:16:43.981Z,101484.28
2022-11-27T18:19:18.899Z,101484.19
2022-11-27T18:21:55.320Z,101479.98
2022-11-27T18:24:31.562Z,101478.91
2022-11-27T18:27:08.469Z,101476.86
2022-11-27T18:29:46.408Z,101473.92
2022-11-27T18:32:21.532Z,101469.87
2022-11-27T18:34:57.408Z,101464.14
2022-11-27T18:37:33.863Z,101458.80
2022-11-27T18:40:10.778Z,101460.00
2022-11-27T18:42:46.672Z,101463.61
2022-11-27T18:45:32.720Z,101462.11
2022-11-27T18:48:12.840Z,101460.05
2022-11-27T18:50:47.974Z,101461.27
2022-11-27T18:53:22.654Z,101459.61
2022-11-27T18:56:02.392Z,101458.38
2022-11-27T18:58:38.134Z,101459.42
2022-11-27T19:01:18.633Z,101457.38
2022-11-27T19:03:53.826Z,101453.43
2022-11-27T19:06:29.521Z,101456.27
2022-11-27T19:09:03.977Z,101455.34
2022-11-27T19:11:39.707Z,101456.51
2022-11-27T19:14:19.856Z,101457.36
2022-11-27T19:16:55.026Z,101454.29
2022-11-27T19:19:53.778Z,101455.61
2022-11-27T19:22:27.616Z,101454.27
2022-11-27T19:25:06.105Z,101452.95
2022-11-27T19:27:41.293Z,101450.19
2022-11-27T19:30:16.791Z,101449.13
2022-11-27T19:32:52.934Z,101451.29
2022-11-27T19:35:27.872Z,101453.64
2022-11-27T19:38:06.965Z,101450.94
2022-11-27T19:40:42.977Z,101451.04
2022-11-27T19:43:18.095Z,101451.88
2022-11-27T19:45:54.450Z,101452.58
2022-11-27T19:48:29.987Z,101448.48
2022-11-27T19:51:06.834Z,101450.73
2022-11-27T19:53:41.504Z,101446.02
2022-11-27T19:56:19.163Z,101444.30
2022-11-27T19:58:54.315Z,101446.20
2022-11-27T20:01:28.877Z,101449.97
2022-11-27T20:04:05.097Z,101449.66
2022-11-27T20:06:40.104Z,101451.40
2022-11-27T20:09:16.064Z,101455.22
2022-11-27T20:11:51.219Z,101451.33
2022-11-27T20:14:26.919Z,101455.08
2022-11-27T20:17:02.974Z,101452.54
2022-11-27T20:19:37.235Z,101452.31
2022-11-27T20:22:11.969Z,101451.35
2022-11-27T20:25:11.606Z,101447.55
2022-11-27T20:27:45.432Z,101452.20
2022-11-27T20:30:24.389Z,101454.84
2022-11-27T20:33:01.933Z,101455.00
2022-11-27T20:35:43.120Z,101452.88
2022-11-27T20:38:21.851Z,101453.23
2022-11-27T20:40:58.526Z,101450.77
2022-11-27T20:43:32.819Z,101449.36
2022-11-27T20:46:10.306Z,101447.23
2022-11-27T20:48:47.198Z,101447.52
2022-11-27T20:51:23.548Z,101446.54
2022-11-27T20:53:59.448Z,101448.27
2022-11-27T20:56:34.638Z,101449.01
2022-11-27T20:59:09.442Z,101449.09
2022-11-27T21:01:44.567Z,101448.48
2022-11-27T21:04:26.872Z,101443.81
2022-11-27T21:07:01.464Z,101442.52
2022-11-27T21:09:36.388Z,101443.98
2022-11-27T21:12:14.037Z,101443.17
2022-11-27T21:14:48.928Z,101441.86
2022-11-27T21:17:23.586Z,101442.61
2022-11-27T21:19:57.409Z,101443.69
2022-11-27T21:22:32.830Z,101443.89
2022-11-27T21:25:07.490Z,101444.14
2022-11-27T21:27:41.823Z,101442.29
2022-11-27T21:30:16.753Z,101441.61
2022-11-27T21:32:51.541Z,101444.48
2022-11-27T21:35:30.125Z,101444.60
2022-11-27T21:38:05.251Z,101443.48
2022-11-27T21:40:39.894Z,101442.92
2022-11-27T21:43:14.212Z,101437.73
2022-11-27T21:45:47.974Z,101439.23
2022-11-27T21:48:21.268Z,101436.79
2022-11-27T21:51:02.620Z,101435.72
2022-11-27T21:53:37.133Z,101433.57
2022-11-27T21:56:13.060Z,101436.36
2022-11-27T21:58:47.050Z,101435.59
2022-11-27T22:01:23.333Z,101433.84
2022-11-27T22:03:58.175Z,101431.42
2022-11-27T22:06:37.380Z,101430.58
2022-11-27T22:09:15.335Z,101428.98
2022-11-27T22:11:50.118Z,101431.80
2022-11-27T22:14:24.123Z,101431.34
2022-11-27T22:16:57.824Z,101432.62
2022-11-27T22:19:32.718Z,101432.50
2022-11-27T22:22:08.522Z,101432.63
2022-11-27T22:24:41.957Z,101427.25
2022-11-27T22:27:15.572Z,101426.02
2022-11-27T22:29:49.408Z,101425.59
2022-11-27T22:32:23.214Z,101422.88
2022-11-27T22:34:56.889Z,101420.98
2022-11-27T22:37:31.020Z,101420.42
2022-11-27T22:40:05.084Z,101417.70
2022-11-27T22:42:39.300Z,101411.60
2022-11-27T22:45:13.382Z,101409.42
2022-11-27T22:47:47.027Z,101410.46
2022-11-27T22:50:21.092Z,101405.23
2022-11-27T22:52:58.266Z,101407.91
2022-11-27T22:55:31.922Z,101405.88
2022-11-27T22:58:05.585Z,101402.98
2022-11-27T23:00:39.934Z,101397.94
2022-11-27T23:03:14.729Z,101401.33
2022-11-27T23:05:49.489Z,101398.00
2022-11-27T23:08:23.427Z,101393.73
2022-11-27T23:10:56.763Z,101395.20
2022-11-27T23:13:30.731Z,101393.69
2022-11-27T23:16:07.817Z,101392.12
2022-11-27T23:18:41.493Z,101389.28
2022-11-27T23:21:18.825Z,101387.55
2022-11-27T23:23:52.943Z,101389.56
2022-11-27T23:26:27.001Z,101386.70
2022-11-27T23:29:00.754Z,101385.14
2022-11-27T23:31:36.592Z,101382.27
2022-11-27T23:34:15.700Z,101374.86
2022-11-27T23:36:49.074Z,101374.09
2022-11-27T23:39:22.936Z,101376.02
2022-11-27T23:41:56.160Z,101375.13
2022-11-27T23:44:29.518Z,101376.13
2022-11-27T23:47:03.248Z,101376.35
2022-11-27T23:49:37.008Z,101375.36
2022-11-27T23:52:15.712Z,101375.27
2022-11-27T23:54:51.582Z,101374.86
2022-11-27T23:57:25.000Z,101376.04
2022-11-27T23:59:58.919Z,101377.73
